Clarklake, Michigan
Current Conditions -  °F | °C
As of 10:56 AM on Wednesday 22 Oct 2014 (Local Time) from KJXN Reporting Station
Overcast Overcast  
Wind Chill: 39°   Ceiling: 1400
Heat Index: 44°   Visibility: 10mi
Dew Point: 37°   Wind: 9mph
Humidity: 76%   Direction: 50°NE
Pressure: 30.35"   Gusts: NA
Location:  42.12°N, 84.34°W
Report Text: KJXN 221456Z 05008KT 10SM OVC014 07/03 A3035 RMK AO2 SLP285 T00670028 51013
Loading
Personal Weather Stations






























Interactive Weather Map
Tropical Storm Tracking
New forecast layout! Learn more

10-Day Weather Forecast

Advertisements
Track Severe Weather on mobile